sensor_id;sensor_type;location;lat;lon;timestamp;P1;durP1;ratioP1;P2;durP2;ratioP2
10729;SDS011;5416;59.258;18.128;2023-06-22T00:00:48;4.28;;;4.18;;
10729;SDS011;5416;59.258;18.128;2023-06-22T00:03:17;4.18;;;4.07;;
10729;SDS011;5416;59.258;18.128;2023-06-22T00:05:44;4.20;;;4.10;;
10729;SDS011;5416;59.258;18.128;2023-06-22T00:08:12;4.00;;;3.90;;
10729;SDS011;5416;59.258;18.128;2023-06-22T00:10:39;4.47;;;4.38;;
10729;SDS011;5416;59.258;18.128;2023-06-22T00:13:07;3.83;;;3.72;;
10729;SDS011;5416;59.258;18.128;2023-06-22T00:15:34;3.97;;;3.88;;
10729;SDS011;5416;59.258;18.128;2023-06-22T00:18:02;3.78;;;3.67;;
10729;SDS011;5416;59.258;18.128;2023-06-22T00:20:30;4.40;;;4.30;;
10729;SDS011;5416;59.258;18.128;2023-06-22T00:22:58;4.22;;;4.13;;
10729;SDS011;5416;59.258;18.128;2023-06-22T00:25:26;4.05;;;3.95;;
10729;SDS011;5416;59.258;18.128;2023-06-22T00:27:53;4.63;;;4.47;;
10729;SDS011;5416;59.258;18.128;2023-06-22T00:30:20;4.20;;;4.10;;
10729;SDS011;5416;59.258;18.128;2023-06-22T00:32:48;4.18;;;4.07;;
10729;SDS011;5416;59.258;18.128;2023-06-22T00:35:15;4.20;;;4.10;;
10729;SDS011;5416;59.258;18.128;2023-06-22T00:37:43;4.07;;;3.97;;
10729;SDS011;5416;59.258;18.128;2023-06-22T00:40:11;4.10;;;4.00;;
10729;SDS011;5416;59.258;18.128;2023-06-22T00:42:38;4.05;;;3.95;;
10729;SDS011;5416;59.258;18.128;2023-06-22T00:45:06;4.05;;;3.95;;
10729;SDS011;5416;59.258;18.128;2023-06-22T00:47:34;4.20;;;4.10;;
10729;SDS011;5416;59.258;18.128;2023-06-22T00:50:01;4.28;;;4.18;;
10729;SDS011;5416;59.258;18.128;2023-06-22T00:52:29;4.30;;;4.20;;
10729;SDS011;5416;59.258;18.128;2023-06-22T00:55:00;4.40;;;4.30;;
10729;SDS011;5416;59.258;18.128;2023-06-22T00:57:28;4.40;;;4.30;;
10729;SDS011;5416;59.258;18.128;2023-06-22T00:59:55;4.50;;;4.40;;
10729;SDS011;5416;59.258;18.128;2023-06-22T01:02:22;4.00;;;3.90;;
10729;SDS011;5416;59.258;18.128;2023-06-22T01:04:50;3.85;;;3.75;;
10729;SDS011;5416;59.258;18.128;2023-06-22T01:07:19;4.05;;;3.95;;
10729;SDS011;5416;59.258;18.128;2023-06-22T01:09:51;4.03;;;3.92;;
10729;SDS011;5416;59.258;18.128;2023-06-22T01:12:22;4.00;;;3.90;;
10729;SDS011;5416;59.258;18.128;2023-06-22T01:14:52;4.43;;;4.32;;
10729;SDS011;5416;59.258;18.128;2023-06-22T01:17:22;4.05;;;3.95;;
10729;SDS011;5416;59.258;18.128;2023-06-22T01:19:50;4.10;;;4.00;;
10729;SDS011;5416;59.258;18.128;2023-06-22T01:22:24;3.95;;;3.85;;
10729;SDS011;5416;59.258;18.128;2023-06-22T01:24:55;4.00;;;3.90;;
10729;SDS011;5416;59.258;18.128;2023-06-22T01:27:32;4.33;;;4.23;;
10729;SDS011;5416;59.258;18.128;2023-06-22T01:30:01;4.28;;;4.18;;
10729;SDS011;5416;59.258;18.128;2023-06-22T01:32:31;4.25;;;4.15;;
10729;SDS011;5416;59.258;18.128;2023-06-22T01:34:58;4.15;;;4.05;;
10729;SDS011;5416;59.258;18.128;2023-06-22T01:37:27;3.87;;;3.77;;
10729;SDS011;5416;59.258;18.128;2023-06-22T01:39:55;3.72;;;3.63;;
10729;SDS011;5416;59.258;18.128;2023-06-22T01:42:23;3.60;;;3.50;;
10729;SDS011;5416;59.258;18.128;2023-06-22T01:44:50;3.58;;;3.47;;
10729;SDS011;5416;59.258;18.128;2023-06-22T01:47:20;3.55;;;3.45;;
10729;SDS011;5416;59.258;18.128;2023-06-22T01:49:47;3.80;;;3.70;;
10729;SDS011;5416;59.258;18.128;2023-06-22T01:52:14;3.30;;;3.20;;
10729;SDS011;5416;59.258;18.128;2023-06-22T01:54:42;3.50;;;3.40;;
10729;SDS011;5416;59.258;18.128;2023-06-22T01:57:09;3.90;;;3.80;;
10729;SDS011;5416;59.258;18.128;2023-06-22T01:59:37;4.10;;;4.00;;
10729;SDS011;5416;59.258;18.128;2023-06-22T02:02:09;3.80;;;3.70;;
10729;SDS011;5416;59.258;18.128;2023-06-22T02:04:40;3.60;;;3.50;;
10729;SDS011;5416;59.258;18.128;2023-06-22T02:07:12;3.67;;;3.58;;
10729;SDS011;5416;59.258;18.128;2023-06-22T02:09:41;3.80;;;3.70;;
10729;SDS011;5416;59.258;18.128;2023-06-22T02:12:09;3.60;;;3.50;;
10729;SDS011;5416;59.258;18.128;2023-06-22T02:14:38;3.25;;;3.15;;
10729;SDS011;5416;59.258;18.128;2023-06-22T02:17:07;3.40;;;3.30;;
10729;SDS011;5416;59.258;18.128;2023-06-22T02:19:36;3.65;;;3.55;;
10729;SDS011;5416;59.258;18.128;2023-06-22T02:22:04;3.42;;;3.33;;
10729;SDS011;5416;59.258;18.128;2023-06-22T02:24:32;4.00;;;3.90;;
10729;SDS011;5416;59.258;18.128;2023-06-22T02:26:59;3.85;;;3.75;;
10729;SDS011;5416;59.258;18.128;2023-06-22T02:29:27;4.03;;;3.92;;
10729;SDS011;5416;59.258;18.128;2023-06-22T02:31:54;4.07;;;3.97;;
10729;SDS011;5416;59.258;18.128;2023-06-22T02:34:21;4.10;;;4.00;;
10729;SDS011;5416;59.258;18.128;2023-06-22T02:36:49;4.10;;;4.00;;
10729;SDS011;5416;59.258;18.128;2023-06-22T02:39:19;4.10;;;4.00;;
10729;SDS011;5416;59.258;18.128;2023-06-22T02:41:47;4.10;;;4.00;;
10729;SDS011;5416;59.258;18.128;2023-06-22T02:44:14;3.78;;;3.67;;
10729;SDS011;5416;59.258;18.128;2023-06-22T02:46:42;4.03;;;3.92;;
10729;SDS011;5416;59.258;18.128;2023-06-22T02:49:09;3.72;;;3.63;;
10729;SDS011;5416;59.258;18.128;2023-06-22T02:51:38;3.85;;;3.75;;
10729;SDS011;5416;59.258;18.128;2023-06-22T02:54:05;4.07;;;3.97;;
10729;SDS011;5416;59.258;18.128;2023-06-22T02:56:34;3.72;;;3.63;;
10729;SDS011;5416;59.258;18.128;2023-06-22T02:59:02;3.90;;;3.80;;
10729;SDS011;5416;59.258;18.128;2023-06-22T03:01:29;4.32;;;4.22;;
10729;SDS011;5416;59.258;18.128;2023-06-22T03:04:04;3.75;;;3.65;;
10729;SDS011;5416;59.258;18.128;2023-06-22T03:06:32;3.70;;;3.60;;
10729;SDS011;5416;59.258;18.128;2023-06-22T03:08:59;3.85;;;3.75;;
10729;SDS011;5416;59.258;18.128;2023-06-22T03:11:29;3.78;;;3.67;;
10729;SDS011;5416;59.258;18.128;2023-06-22T03:13:57;3.92;;;3.83;;
10729;SDS011;5416;59.258;18.128;2023-06-22T03:16:25;3.87;;;3.77;;
10729;SDS011;5416;59.258;18.128;2023-06-22T03:18:52;3.88;;;3.78;;
10729;SDS011;5416;59.258;18.128;2023-06-22T03:21:21;3.83;;;3.73;;
10729;SDS011;5416;59.258;18.128;2023-06-22T03:23:48;3.80;;;3.70;;
10729;SDS011;5416;59.258;18.128;2023-06-22T03:26:16;3.78;;;3.67;;
10729;SDS011;5416;59.258;18.128;2023-06-22T03:28:43;4.20;;;4.10;;
10729;SDS011;5416;59.258;18.128;2023-06-22T03:31:12;3.78;;;3.67;;
10729;SDS011;5416;59.258;18.128;2023-06-22T03:33:39;4.28;;;4.18;;
10729;SDS011;5416;59.258;18.128;2023-06-22T03:36:07;3.63;;;3.53;;
10729;SDS011;5416;59.258;18.128;2023-06-22T03:38:34;3.78;;;3.67;;
10729;SDS011;5416;59.258;18.128;2023-06-22T03:41:02;3.75;;;3.65;;
10729;SDS011;5416;59.258;18.128;2023-06-22T03:43:29;4.03;;;3.93;;
10729;SDS011;5416;59.258;18.128;2023-06-22T03:45:56;3.90;;;3.80;;
10729;SDS011;5416;59.258;18.128;2023-06-22T03:48:25;4.10;;;4.00;;
10729;SDS011;5416;59.258;18.128;2023-06-22T03:50:52;3.90;;;3.80;;
10729;SDS011;5416;59.258;18.128;2023-06-22T03:53:19;3.88;;;3.78;;
10729;SDS011;5416;59.258;18.128;2023-06-22T03:55:50;3.70;;;3.60;;
10729;SDS011;5416;59.258;18.128;2023-06-22T03:58:17;3.80;;;3.70;;
10729;SDS011;5416;59.258;18.128;2023-06-22T04:00:45;4.53;;;4.43;;
10729;SDS011;5416;59.258;18.128;2023-06-22T04:03:13;3.77;;;3.67;;
10729;SDS011;5416;59.258;18.128;2023-06-22T04:05:41;3.72;;;3.63;;
10729;SDS011;5416;59.258;18.128;2023-06-22T04:08:09;3.88;;;3.78;;
10729;SDS011;5416;59.258;18.128;2023-06-22T04:10:36;4.07;;;3.97;;
10729;SDS011;5416;59.258;18.128;2023-06-22T04:13:03;4.40;;;4.30;;
10729;SDS011;5416;59.258;18.128;2023-06-22T04:15:31;3.88;;;3.78;;
10729;SDS011;5416;59.258;18.128;2023-06-22T04:17:58;4.00;;;3.90;;
10729;SDS011;5416;59.258;18.128;2023-06-22T04:20:25;4.13;;;4.03;;
10729;SDS011;5416;59.258;18.128;2023-06-22T04:22:54;3.95;;;3.85;;
10729;SDS011;5416;59.258;18.128;2023-06-22T04:25:21;3.88;;;3.78;;
10729;SDS011;5416;59.258;18.128;2023-06-22T04:27:49;3.80;;;3.70;;
10729;SDS011;5416;59.258;18.128;2023-06-22T04:30:16;3.75;;;3.65;;
10729;SDS011;5416;59.258;18.128;2023-06-22T04:32:44;3.88;;;3.78;;
10729;SDS011;5416;59.258;18.128;2023-06-22T04:35:21;3.88;;;3.78;;
10729;SDS011;5416;59.258;18.128;2023-06-22T04:37:48;3.67;;;3.58;;
10729;SDS011;5416;59.258;18.128;2023-06-22T04:40:21;3.78;;;3.67;;
10729;SDS011;5416;59.258;18.128;2023-06-22T04:42:48;3.70;;;3.60;;
10729;SDS011;5416;59.258;18.128;2023-06-22T04:45:19;3.95;;;3.85;;
10729;SDS011;5416;59.258;18.128;2023-06-22T04:47:46;3.80;;;3.70;;
10729;SDS011;5416;59.258;18.128;2023-06-22T04:50:13;3.50;;;3.40;;
10729;SDS011;5416;59.258;18.128;2023-06-22T04:52:42;3.50;;;3.40;;
10729;SDS011;5416;59.258;18.128;2023-06-22T04:55:10;3.40;;;3.30;;
10729;SDS011;5416;59.258;18.128;2023-06-22T04:57:39;3.58;;;3.47;;
10729;SDS011;5416;59.258;18.128;2023-06-22T05:00:10;3.53;;;3.42;;
10729;SDS011;5416;59.258;18.128;2023-06-22T05:02:38;3.67;;;3.58;;
10729;SDS011;5416;59.258;18.128;2023-06-22T05:05:05;3.70;;;3.60;;
10729;SDS011;5416;59.258;18.128;2023-06-22T05:07:33;3.60;;;3.50;;
10729;SDS011;5416;59.258;18.128;2023-06-22T05:10:00;3.58;;;3.47;;
10729;SDS011;5416;59.258;18.128;2023-06-22T05:12:28;3.67;;;3.58;;
10729;SDS011;5416;59.258;18.128;2023-06-22T05:14:57;3.80;;;3.70;;
10729;SDS011;5416;59.258;18.128;2023-06-22T05:17:24;3.53;;;3.43;;
10729;SDS011;5416;59.258;18.128;2023-06-22T05:19:51;3.80;;;3.70;;
10729;SDS011;5416;59.258;18.128;2023-06-22T05:22:20;3.67;;;3.58;;
10729;SDS011;5416;59.258;18.128;2023-06-22T05:24:47;3.70;;;3.60;;
10729;SDS011;5416;59.258;18.128;2023-06-22T05:27:14;3.20;;;3.10;;
10729;SDS011;5416;59.258;18.128;2023-06-22T05:29:42;3.47;;;3.38;;
10729;SDS011;5416;59.258;18.128;2023-06-22T05:32:10;3.20;;;3.10;;
10729;SDS011;5416;59.258;18.128;2023-06-22T05:34:38;3.05;;;2.95;;
10729;SDS011;5416;59.258;18.128;2023-06-22T05:37:05;3.20;;;3.10;;
10729;SDS011;5416;59.258;18.128;2023-06-22T05:39:34;3.20;;;3.10;;
10729;SDS011;5416;59.258;18.128;2023-06-22T05:42:04;3.40;;;3.30;;
10729;SDS011;5416;59.258;18.128;2023-06-22T05:44:31;3.63;;;3.53;;
10729;SDS011;5416;59.258;18.128;2023-06-22T05:46:59;3.63;;;3.53;;
10729;SDS011;5416;59.258;18.128;2023-06-22T05:49:28;3.88;;;3.78;;
10729;SDS011;5416;59.258;18.128;2023-06-22T05:51:57;3.58;;;3.47;;
10729;SDS011;5416;59.258;18.128;2023-06-22T05:54:25;3.50;;;3.40;;
10729;SDS011;5416;59.258;18.128;2023-06-22T05:56:52;4.00;;;3.90;;
10729;SDS011;5416;59.258;18.128;2023-06-22T05:59:19;3.80;;;3.70;;
10729;SDS011;5416;59.258;18.128;2023-06-22T06:01:47;3.80;;;3.70;;
10729;SDS011;5416;59.258;18.128;2023-06-22T06:04:15;3.67;;;3.58;;
10729;SDS011;5416;59.258;18.128;2023-06-22T06:06:44;4.17;;;4.07;;
10729;SDS011;5416;59.258;18.128;2023-06-22T06:09:12;3.80;;;3.70;;
10729;SDS011;5416;59.258;18.128;2023-06-22T06:11:39;3.80;;;3.70;;
10729;SDS011;5416;59.258;18.128;2023-06-22T06:14:07;4.00;;;3.90;;
10729;SDS011;5416;59.258;18.128;2023-06-22T06:16:34;4.20;;;4.10;;
10729;SDS011;5416;59.258;18.128;2023-06-22T06:19:02;3.97;;;3.88;;
10729;SDS011;5416;59.258;18.128;2023-06-22T06:21:29;3.88;;;3.78;;
10729;SDS011;5416;59.258;18.128;2023-06-22T06:23:58;4.15;;;4.05;;
10729;SDS011;5416;59.258;18.128;2023-06-22T06:26:25;4.20;;;4.10;;
10729;SDS011;5416;59.258;18.128;2023-06-22T06:28:55;3.63;;;3.53;;
10729;SDS011;5416;59.258;18.128;2023-06-22T06:31:22;4.05;;;3.95;;
10729;SDS011;5416;59.258;18.128;2023-06-22T06:33:49;4.03;;;3.92;;
10729;SDS011;5416;59.258;18.128;2023-06-22T06:36:17;3.92;;;3.83;;
10729;SDS011;5416;59.258;18.128;2023-06-22T06:38:44;3.85;;;3.75;;
10729;SDS011;5416;59.258;18.128;2023-06-22T06:41:13;3.60;;;3.50;;
10729;SDS011;5416;59.258;18.128;2023-06-22T06:43:41;3.83;;;3.72;;
10729;SDS011;5416;59.258;18.128;2023-06-22T06:46:08;4.00;;;3.90;;
10729;SDS011;5416;59.258;18.128;2023-06-22T06:48:36;3.90;;;3.80;;
10729;SDS011;5416;59.258;18.128;2023-06-22T06:51:03;3.90;;;3.80;;
10729;SDS011;5416;59.258;18.128;2023-06-22T06:53:30;3.95;;;3.85;;
10729;SDS011;5416;59.258;18.128;2023-06-22T06:55:58;4.10;;;4.00;;
10729;SDS011;5416;59.258;18.128;2023-06-22T06:58:27;4.22;;;4.13;;
10729;SDS011;5416;59.258;18.128;2023-06-22T07:00:54;3.60;;;3.50;;
10729;SDS011;5416;59.258;18.128;2023-06-22T07:03:21;3.55;;;3.45;;
10729;SDS011;5416;59.258;18.128;2023-06-22T07:05:49;3.33;;;3.22;;
10729;SDS011;5416;59.258;18.128;2023-06-22T07:08:16;3.67;;;3.58;;
10729;SDS011;5416;59.258;18.128;2023-06-22T07:10:43;4.35;;;4.25;;
10729;SDS011;5416;59.258;18.128;2023-06-22T07:13:11;3.78;;;3.67;;
10729;SDS011;5416;59.258;18.128;2023-06-22T07:15:39;3.75;;;3.65;;
10729;SDS011;5416;59.258;18.128;2023-06-22T07:18:07;3.47;;;3.38;;
10729;SDS011;5416;59.258;18.128;2023-06-22T07:20:34;3.75;;;3.65;;
10729;SDS011;5416;59.258;18.128;2023-06-22T07:23:01;3.63;;;3.53;;
10729;SDS011;5416;59.258;18.128;2023-06-22T07:25:29;3.75;;;3.65;;
10729;SDS011;5416;59.258;18.128;2023-06-22T07:27:57;3.80;;;3.70;;
10729;SDS011;5416;59.258;18.128;2023-06-22T07:30:24;3.97;;;3.88;;
10729;SDS011;5416;59.258;18.128;2023-06-22T07:32:53;4.00;;;3.90;;
10729;SDS011;5416;59.258;18.128;2023-06-22T07:35:21;3.70;;;3.60;;
10729;SDS011;5416;59.258;18.128;2023-06-22T07:37:48;4.30;;;4.20;;
10729;SDS011;5416;59.258;18.128;2023-06-22T07:40:15;4.35;;;4.25;;
10729;SDS011;5416;59.258;18.128;2023-06-22T07:42:42;4.10;;;4.00;;
10729;SDS011;5416;59.258;18.128;2023-06-22T07:45:13;4.05;;;3.95;;
10729;SDS011;5416;59.258;18.128;2023-06-22T07:47:40;3.63;;;3.53;;
10729;SDS011;5416;59.258;18.128;2023-06-22T07:50:09;3.80;;;3.70;;
10729;SDS011;5416;59.258;18.128;2023-06-22T07:52:37;4.10;;;4.00;;
10729;SDS011;5416;59.258;18.128;2023-06-22T07:55:04;3.97;;;3.88;;
10729;SDS011;5416;59.258;18.128;2023-06-22T07:57:32;3.75;;;3.65;;
10729;SDS011;5416;59.258;18.128;2023-06-22T07:59:59;3.85;;;3.75;;
10729;SDS011;5416;59.258;18.128;2023-06-22T08:02:29;4.00;;;3.90;;
10729;SDS011;5416;59.258;18.128;2023-06-22T08:04:56;3.50;;;3.40;;
10729;SDS011;5416;59.258;18.128;2023-06-22T08:07:25;3.85;;;3.75;;
10729;SDS011;5416;59.258;18.128;2023-06-22T08:09:52;3.95;;;3.85;;
10729;SDS011;5416;59.258;18.128;2023-06-22T08:12:19;3.80;;;3.70;;
10729;SDS011;5416;59.258;18.128;2023-06-22T08:14:47;3.70;;;3.60;;
10729;SDS011;5416;59.258;18.128;2023-06-22T08:17:14;3.90;;;3.80;;
10729;SDS011;5416;59.258;18.128;2023-06-22T08:19:43;3.30;;;3.20;;
10729;SDS011;5416;59.258;18.128;2023-06-22T08:22:10;3.53;;;3.43;;
10729;SDS011;5416;59.258;18.128;2023-06-22T08:24:39;3.30;;;3.20;;
10729;SDS011;5416;59.258;18.128;2023-06-22T08:27:06;3.10;;;3.00;;
10729;SDS011;5416;59.258;18.128;2023-06-22T08:29:35;3.47;;;3.38;;
10729;SDS011;5416;59.258;18.128;2023-06-22T08:32:02;3.33;;;3.22;;
10729;SDS011;5416;59.258;18.128;2023-06-22T08:34:29;3.47;;;3.38;;
10729;SDS011;5416;59.258;18.128;2023-06-22T08:36:57;3.90;;;3.80;;
10729;SDS011;5416;59.258;18.128;2023-06-22T08:39:24;3.60;;;3.50;;
10729;SDS011;5416;59.258;18.128;2023-06-22T08:41:54;4.07;;;3.97;;
10729;SDS011;5416;59.258;18.128;2023-06-22T08:44:21;3.70;;;3.60;;
10729;SDS011;5416;59.258;18.128;2023-06-22T08:46:49;3.47;;;3.38;;
10729;SDS011;5416;59.258;18.128;2023-06-22T08:49:16;3.90;;;3.80;;
10729;SDS011;5416;59.258;18.128;2023-06-22T08:51:43;3.95;;;3.85;;
10729;SDS011;5416;59.258;18.128;2023-06-22T08:54:12;3.47;;;3.38;;
10729;SDS011;5416;59.258;18.128;2023-06-22T08:56:40;3.90;;;3.80;;
10729;SDS011;5416;59.258;18.128;2023-06-22T08:59:10;3.83;;;3.72;;
10729;SDS011;5416;59.258;18.128;2023-06-22T09:01:37;3.65;;;3.55;;
10729;SDS011;5416;59.258;18.128;2023-06-22T09:04:05;3.27;;;3.17;;
10729;SDS011;5416;59.258;18.128;2023-06-22T09:06:34;3.30;;;3.20;;
10729;SDS011;5416;59.258;18.128;2023-06-22T09:09:06;3.50;;;3.40;;
10729;SDS011;5416;59.258;18.128;2023-06-22T09:11:33;3.70;;;3.60;;
10729;SDS011;5416;59.258;18.128;2023-06-22T09:14:01;3.50;;;3.40;;
10729;SDS011;5416;59.258;18.128;2023-06-22T09:16:30;3.60;;;3.50;;
10729;SDS011;5416;59.258;18.128;2023-06-22T09:18:57;3.40;;;3.30;;
10729;SDS011;5416;59.258;18.128;2023-06-22T09:21:25;3.47;;;3.37;;
10729;SDS011;5416;59.258;18.128;2023-06-22T09:23:52;3.30;;;3.20;;
10729;SDS011;5416;59.258;18.128;2023-06-22T09:26:20;2.92;;;2.83;;
10729;SDS011;5416;59.258;18.128;2023-06-22T09:28:47;2.90;;;2.80;;
10729;SDS011;5416;59.258;18.128;2023-06-22T09:31:15;2.72;;;2.63;;
10729;SDS011;5416;59.258;18.128;2023-06-22T09:33:43;2.58;;;2.47;;
10729;SDS011;5416;59.258;18.128;2023-06-22T09:36:12;2.70;;;2.60;;
10729;SDS011;5416;59.258;18.128;2023-06-22T09:38:39;2.70;;;2.60;;
10729;SDS011;5416;59.258;18.128;2023-06-22T09:41:06;2.53;;;2.42;;
10729;SDS011;5416;59.258;18.128;2023-06-22T09:43:34;2.60;;;2.50;;
10729;SDS011;5416;59.258;18.128;2023-06-22T09:46:01;2.45;;;2.35;;
10729;SDS011;5416;59.258;18.128;2023-06-22T09:48:28;2.53;;;2.42;;
10729;SDS011;5416;59.258;18.128;2023-06-22T09:50:57;2.83;;;2.72;;
10729;SDS011;5416;59.258;18.128;2023-06-22T09:53:24;2.70;;;2.60;;
10729;SDS011;5416;59.258;18.128;2023-06-22T09:55:52;2.60;;;2.50;;
10729;SDS011;5416;59.258;18.128;2023-06-22T09:58:19;2.60;;;2.50;;
10729;SDS011;5416;59.258;18.128;2023-06-22T10:00:47;2.60;;;2.50;;
10729;SDS011;5416;59.258;18.128;2023-06-22T10:03:14;2.60;;;2.50;;
10729;SDS011;5416;59.258;18.128;2023-06-22T10:05:41;2.60;;;2.50;;
10729;SDS011;5416;59.258;18.128;2023-06-22T10:08:10;2.60;;;2.50;;
10729;SDS011;5416;59.258;18.128;2023-06-22T10:10:37;2.50;;;2.40;;
10729;SDS011;5416;59.258;18.128;2023-06-22T10:13:07;2.70;;;2.60;;
10729;SDS011;5416;59.258;18.128;2023-06-22T10:15:35;2.83;;;2.72;;
10729;SDS011;5416;59.258;18.128;2023-06-22T10:18:03;2.70;;;2.60;;
10729;SDS011;5416;59.258;18.128;2023-06-22T10:20:30;2.70;;;2.60;;
10729;SDS011;5416;59.258;18.128;2023-06-22T10:22:57;2.67;;;2.58;;
10729;SDS011;5416;59.258;18.128;2023-06-22T10:25:26;2.60;;;2.50;;
10729;SDS011;5416;59.258;18.128;2023-06-22T10:27:53;2.60;;;2.50;;
10729;SDS011;5416;59.258;18.128;2023-06-22T10:30:21;2.53;;;2.43;;
10729;SDS011;5416;59.258;18.128;2023-06-22T10:32:48;2.63;;;2.53;;
10729;SDS011;5416;59.258;18.128;2023-06-22T10:35:15;2.70;;;2.60;;
10729;SDS011;5416;59.258;18.128;2023-06-22T10:37:43;2.30;;;2.20;;
10729;SDS011;5416;59.258;18.128;2023-06-22T10:40:11;2.75;;;2.65;;
10729;SDS011;5416;59.258;18.128;2023-06-22T10:42:40;2.70;;;2.60;;
10729;SDS011;5416;59.258;18.128;2023-06-22T10:45:08;2.78;;;2.67;;
10729;SDS011;5416;59.258;18.128;2023-06-22T10:47:35;2.67;;;2.58;;
10729;SDS011;5416;59.258;18.128;2023-06-22T10:50:03;3.00;;;2.90;;
10729;SDS011;5416;59.258;18.128;2023-06-22T10:52:31;2.73;;;2.63;;
10729;SDS011;5416;59.258;18.128;2023-06-22T10:54:58;2.85;;;2.75;;
10729;SDS011;5416;59.258;18.128;2023-06-22T10:57:25;2.80;;;2.70;;
10729;SDS011;5416;59.258;18.128;2023-06-22T10:59:54;2.50;;;2.40;;
10729;SDS011;5416;59.258;18.128;2023-06-22T11:02:22;3.00;;;2.90;;
10729;SDS011;5416;59.258;18.128;2023-06-22T11:04:49;2.70;;;2.60;;
10729;SDS011;5416;59.258;18.128;2023-06-22T11:07:16;2.40;;;2.30;;
10729;SDS011;5416;59.258;18.128;2023-06-22T11:09:43;2.40;;;2.30;;
10729;SDS011;5416;59.258;18.128;2023-06-22T11:12:11;2.60;;;2.50;;
10729;SDS011;5416;59.258;18.128;2023-06-22T11:14:38;2.70;;;2.60;;
10729;SDS011;5416;59.258;18.128;2023-06-22T11:17:07;2.90;;;2.80;;
10729;SDS011;5416;59.258;18.128;2023-06-22T11:19:34;2.80;;;2.70;;
10729;SDS011;5416;59.258;18.128;2023-06-22T11:22:01;2.63;;;2.53;;
10729;SDS011;5416;59.258;18.128;2023-06-22T11:24:29;2.80;;;2.70;;
10729;SDS011;5416;59.258;18.128;2023-06-22T11:26:56;2.90;;;2.80;;
10729;SDS011;5416;59.258;18.128;2023-06-22T11:29:23;2.90;;;2.80;;
10729;SDS011;5416;59.258;18.128;2023-06-22T11:31:50;2.72;;;2.63;;
10729;SDS011;5416;59.258;18.128;2023-06-22T11:34:19;2.80;;;2.70;;
10729;SDS011;5416;59.258;18.128;2023-06-22T11:36:47;2.88;;;2.78;;
10729;SDS011;5416;59.258;18.128;2023-06-22T11:39:14;2.75;;;2.65;;
10729;SDS011;5416;59.258;18.128;2023-06-22T11:41:41;3.00;;;2.90;;
10729;SDS011;5416;59.258;18.128;2023-06-22T11:44:08;2.83;;;2.72;;
10729;SDS011;5416;59.258;18.128;2023-06-22T11:46:35;2.90;;;2.80;;
10729;SDS011;5416;59.258;18.128;2023-06-22T11:49:03;2.80;;;2.70;;
10729;SDS011;5416;59.258;18.128;2023-06-22T11:51:31;2.80;;;2.70;;
10729;SDS011;5416;59.258;18.128;2023-06-22T11:53:59;2.67;;;2.57;;
10729;SDS011;5416;59.258;18.128;2023-06-22T11:56:27;2.80;;;2.70;;
10729;SDS011;5416;59.258;18.128;2023-06-22T11:58:54;2.90;;;2.80;;
10729;SDS011;5416;59.258;18.128;2023-06-22T12:01:22;2.70;;;2.60;;
10729;SDS011;5416;59.258;18.128;2023-06-22T12:03:49;2.70;;;2.60;;
10729;SDS011;5416;59.258;18.128;2023-06-22T12:06:17;2.83;;;2.72;;
10729;SDS011;5416;59.258;18.128;2023-06-22T12:08:45;2.78;;;2.67;;
10729;SDS011;5416;59.258;18.128;2023-06-22T12:11:12;2.80;;;2.70;;
10729;SDS011;5416;59.258;18.128;2023-06-22T12:13:40;2.75;;;2.65;;
10729;SDS011;5416;59.258;18.128;2023-06-22T12:16:07;2.78;;;2.67;;
10729;SDS011;5416;59.258;18.128;2023-06-22T12:18:35;2.60;;;2.50;;
10729;SDS011;5416;59.258;18.128;2023-06-22T12:21:02;2.70;;;2.60;;
10729;SDS011;5416;59.258;18.128;2023-06-22T12:23:29;2.80;;;2.70;;
10729;SDS011;5416;59.258;18.128;2023-06-22T12:25:58;3.00;;;2.90;;
10729;SDS011;5416;59.258;18.128;2023-06-22T12:28:26;3.00;;;2.90;;
10729;SDS011;5416;59.258;18.128;2023-06-22T12:30:53;2.70;;;2.60;;
10729;SDS011;5416;59.258;18.128;2023-06-22T12:33:21;2.75;;;2.65;;
10729;SDS011;5416;59.258;18.128;2023-06-22T12:35:48;2.90;;;2.80;;
10729;SDS011;5416;59.258;18.128;2023-06-22T12:38:15;2.97;;;2.88;;
10729;SDS011;5416;59.258;18.128;2023-06-22T12:40:43;2.88;;;2.78;;
10729;SDS011;5416;59.258;18.128;2023-06-22T12:43:13;2.80;;;2.70;;
10729;SDS011;5416;59.258;18.128;2023-06-22T12:45:41;2.70;;;2.60;;
10729;SDS011;5416;59.258;18.128;2023-06-22T12:48:08;3.00;;;2.90;;
10729;SDS011;5416;59.258;18.128;2023-06-22T12:50:35;3.05;;;2.95;;
10729;SDS011;5416;59.258;18.128;2023-06-22T12:53:02;2.97;;;2.88;;
10729;SDS011;5416;59.258;18.128;2023-06-22T12:55:31;3.10;;;3.00;;
10729;SDS011;5416;59.258;18.128;2023-06-22T12:57:58;3.20;;;3.10;;
10729;SDS011;5416;59.258;18.128;2023-06-22T13:00:27;3.30;;;3.20;;
10729;SDS011;5416;59.258;18.128;2023-06-22T13:02:54;3.30;;;3.20;;
10729;SDS011;5416;59.258;18.128;2023-06-22T13:05:21;3.50;;;3.40;;
10729;SDS011;5416;59.258;18.128;2023-06-22T13:07:49;3.70;;;3.60;;
10729;SDS011;5416;59.258;18.128;2023-06-22T13:10:16;3.80;;;3.70;;
10729;SDS011;5416;59.258;18.128;2023-06-22T13:12:43;3.80;;;3.70;;
10729;SDS011;5416;59.258;18.128;2023-06-22T13:15:10;4.00;;;3.90;;
10729;SDS011;5416;59.258;18.128;2023-06-22T13:17:39;4.20;;;4.10;;
10729;SDS011;5416;59.258;18.128;2023-06-22T13:20:07;3.80;;;3.70;;
10729;SDS011;5416;59.258;18.128;2023-06-22T13:22:35;3.70;;;3.60;;
10729;SDS011;5416;59.258;18.128;2023-06-22T13:25:05;4.17;;;4.07;;
10729;SDS011;5416;59.258;18.128;2023-06-22T13:27:36;4.28;;;4.18;;
10729;SDS011;5416;59.258;18.128;2023-06-22T13:30:04;4.05;;;3.95;;
10729;SDS011;5416;59.258;18.128;2023-06-22T13:32:32;4.03;;;3.92;;
10729;SDS011;5416;59.258;18.128;2023-06-22T13:35:00;3.80;;;3.70;;
10729;SDS011;5416;59.258;18.128;2023-06-22T13:37:28;4.00;;;3.90;;
10729;SDS011;5416;59.258;18.128;2023-06-22T13:39:56;3.80;;;3.70;;
10729;SDS011;5416;59.258;18.128;2023-06-22T13:42:24;3.88;;;3.78;;
10729;SDS011;5416;59.258;18.128;2023-06-22T13:44:52;4.13;;;4.03;;
10729;SDS011;5416;59.258;18.128;2023-06-22T13:47:19;3.95;;;3.85;;
10729;SDS011;5416;59.258;18.128;2023-06-22T13:49:46;3.85;;;3.75;;
10729;SDS011;5416;59.258;18.128;2023-06-22T13:52:15;4.13;;;4.03;;
10729;SDS011;5416;59.258;18.128;2023-06-22T13:54:42;3.95;;;3.85;;
10729;SDS011;5416;59.258;18.128;2023-06-22T13:57:09;3.70;;;3.60;;
10729;SDS011;5416;59.258;18.128;2023-06-22T13:59:37;3.97;;;3.88;;
10729;SDS011;5416;59.258;18.128;2023-06-22T14:02:04;3.95;;;3.85;;
10729;SDS011;5416;59.258;18.128;2023-06-22T14:04:31;4.30;;;4.20;;
10729;SDS011;5416;59.258;18.128;2023-06-22T14:06:59;4.05;;;3.95;;
10729;SDS011;5416;59.258;18.128;2023-06-22T14:09:28;4.13;;;4.03;;
10729;SDS011;5416;59.258;18.128;2023-06-22T14:11:55;4.03;;;3.92;;
10729;SDS011;5416;59.258;18.128;2023-06-22T14:14:22;4.18;;;4.07;;
10729;SDS011;5416;59.258;18.128;2023-06-22T14:16:49;4.38;;;4.28;;
10729;SDS011;5416;59.258;18.128;2023-06-22T14:19:17;4.30;;;4.20;;
10729;SDS011;5416;59.258;18.128;2023-06-22T14:21:44;4.20;;;4.10;;
10729;SDS011;5416;59.258;18.128;2023-06-22T14:24:11;4.30;;;4.20;;
10729;SDS011;5416;59.258;18.128;2023-06-22T14:26:40;4.17;;;4.07;;
10729;SDS011;5416;59.258;18.128;2023-06-22T14:29:07;4.10;;;4.00;;
10729;SDS011;5416;59.258;18.128;2023-06-22T14:31:35;4.28;;;4.18;;
10729;SDS011;5416;59.258;18.128;2023-06-22T14:34:02;4.30;;;4.20;;
10729;SDS011;5416;59.258;18.128;2023-06-22T14:36:30;4.15;;;4.05;;
10729;SDS011;5416;59.258;18.128;2023-06-22T14:38:58;3.87;;;3.77;;
10729;SDS011;5416;59.258;18.128;2023-06-22T14:41:25;4.20;;;4.10;;
10729;SDS011;5416;59.258;18.128;2023-06-22T14:43:54;4.10;;;4.00;;
10729;SDS011;5416;59.258;18.128;2023-06-22T14:46:21;4.10;;;4.00;;
10729;SDS011;5416;59.258;18.128;2023-06-22T14:48:48;3.95;;;3.85;;
10729;SDS011;5416;59.258;18.128;2023-06-22T14:51:15;4.13;;;4.03;;